Time,TemperatureF,DewpointF,PressureIn,WindDirection,WindDirectionDegrees,WindSpeedMPH,WindSpeedGustMPH,Humidity,HourlyPrecipIn,Conditions,Clouds,dailyrainin,SolarRadiationWatts/m^2,SoftwareType,DateUTC
2013-03-02 00:00:00,19.0,10.0,-100.00,NE,45,4.0,-999.0,66,-99.99,,,-99.99,0.000000,,2013-03-02 05:00:00,
2013-03-02 00:32:00,19.0,10.0,-100.00,NE,45,4.0,-999.0,66,-99.99,,,-99.99,0.000000,,2013-03-02 05:32:00,
2013-03-02 00:42:00,19.0,10.0,-100.00,NE,45,4.0,-999.0,66,-99.99,,,-99.99,0.000000,,2013-03-02 05:42:00,
2013-03-02 00:52:00,19.0,10.0,-100.00,NE,45,4.0,-999.0,66,-99.99,,,-99.99,0.000000,,2013-03-02 05:52:00,
2013-03-02 01:00:00,18.0,9.0,-100.00,NE,45,5.0,-999.0,67,-99.99,,,-99.99,0.000000,,2013-03-02 06:00:00,
2013-03-02 01:42:00,18.0,9.0,-100.00,NE,45,5.0,-999.0,67,-99.99,,,-99.99,0.000000,,2013-03-02 06:42:00,
2013-03-02 01:52:00,18.0,9.0,-100.00,NE,45,5.0,-999.0,67,-99.99,,,-99.99,0.000000,,2013-03-02 06:52:00,
2013-03-02 02:00:00,16.0,8.0,-100.00,NE,45,5.0,-999.0,67,-99.99,,,-99.99,0.000000,,2013-03-02 07:00:00,
2013-03-02 02:32:00,16.0,8.0,-100.00,NE,45,5.0,-999.0,67,-99.99,,,-99.99,0.000000,,2013-03-02 07:32:00,
2013-03-02 02:42:00,16.0,8.0,-100.00,NE,45,5.0,-999.0,67,-99.99,,,-99.99,0.000000,,2013-03-02 07:42:00,
2013-03-02 02:52:00,16.0,8.0,-100.00,NE,45,5.0,-999.0,67,-99.99,,,-99.99,0.000000,,2013-03-02 07:52:00,
2013-03-02 04:00:00,14.0,7.0,-100.00,NE,45,3.0,-999.0,72,-99.99,,,-99.99,0.000000,,2013-03-02 09:00:00,
2013-03-02 04:42:00,14.0,7.0,-100.00,NE,45,3.0,-999.0,72,-99.99,,,-99.99,0.000000,,2013-03-02 09:42:00,
2013-03-02 04:52:00,14.0,7.0,-100.00,NE,45,3.0,-999.0,72,-99.99,,,-99.99,0.000000,,2013-03-02 09:52:00,
2013-03-02 05:00:00,15.0,7.0,-100.00,NE,45,3.0,-999.0,71,-99.99,,,-99.99,0.000000,,2013-03-02 10:00:00,
2013-03-02 05:43:00,15.0,7.0,-100.00,NE,45,3.0,-999.0,71,-99.99,,,-99.99,0.000000,,2013-03-02 10:43:00,
2013-03-02 05:52:00,15.0,7.0,-100.00,NE,45,3.0,-999.0,71,-99.99,,,-99.99,0.000000,,2013-03-02 10:52:00,
2013-03-02 06:00:00,15.0,7.0,-100.00,NE,45,3.0,-999.0,70,-99.99,,,-99.99,0.000000,,2013-03-02 11:00:00,
2013-03-02 06:42:00,15.0,7.0,-100.00,NE,45,3.0,-999.0,70,-99.99,,,-99.99,0.000000,,2013-03-02 11:42:00,
2013-03-02 06:52:00,15.0,7.0,-100.00,NE,45,3.0,-999.0,70,-99.99,,,-99.99,0.000000,,2013-03-02 11:52:00,
2013-03-02 07:00:00,15.0,7.0,-100.00,NE,45,3.0,-999.0,72,-99.99,,,-99.99,0.000000,,2013-03-02 12:00:00,
2013-03-02 07:43:00,15.0,7.0,-100.00,NE,45,3.0,-999.0,72,-99.99,,,-99.99,0.000000,,2013-03-02 12:43:00,
2013-03-02 07:53:00,15.0,7.0,-100.00,NE,45,3.0,-999.0,72,-99.99,,,-99.99,0.000000,,2013-03-02 12:53:00,
2013-03-02 08:00:00,15.0,8.0,-100.00,ENE,67,2.0,-999.0,74,-99.99,,,-99.99,16.240000,,2013-03-02 13:00:00,
2013-03-02 08:42:00,15.0,8.0,-100.00,ENE,67,2.0,-999.0,74,-99.99,,,-99.99,16.240000,,2013-03-02 13:42:00,
2013-03-02 08:52:00,15.0,8.0,-100.00,ENE,67,2.0,-999.0,74,-99.99,,,-99.99,16.240000,,2013-03-02 13:52:00,
2013-03-02 09:00:00,16.0,9.0,-100.00,ENE,67,3.0,-999.0,72,-99.99,,,-99.99,131.080002,,2013-03-02 14:00:00,
2013-03-02 09:32:00,16.0,9.0,-100.00,ENE,67,3.0,-999.0,72,-99.99,,,-99.99,131.080002,,2013-03-02 14:32:00,
2013-03-02 09:42:00,16.0,9.0,-100.00,ENE,67,3.0,-999.0,72,-99.99,,,-99.99,131.080002,,2013-03-02 14:42:00,
2013-03-02 09:52:00,16.0,9.0,-100.00,ENE,67,3.0,-999.0,72,-99.99,,,-99.99,131.080002,,2013-03-02 14:52:00,
2013-03-02 10:00:00,18.0,10.0,-100.00,ENE,67,2.0,-999.0,72,-99.99,,,-99.99,227.360001,,2013-03-02 15:00:00,
2013-03-02 10:42:00,18.0,10.0,-100.00,ENE,67,2.0,-999.0,72,-99.99,,,-99.99,227.360001,,2013-03-02 15:42:00,
2013-03-02 10:52:00,18.0,10.0,-100.00,ENE,67,2.0,-999.0,72,-99.99,,,-99.99,227.360001,,2013-03-02 15:52:00,
2013-03-02 11:00:00,18.0,11.0,-100.00,East,90,6.0,-999.0,73,-99.99,,,-99.99,257.519989,,2013-03-02 16:00:00,
2013-03-02 11:42:00,18.0,11.0,-100.00,East,90,6.0,-999.0,73,-99.99,,,-99.99,257.519989,,2013-03-02 16:42:00,
2013-03-02 11:52:00,18.0,11.0,-100.00,East,90,6.0,-999.0,73,-99.99,,,-99.99,257.519989,,2013-03-02 16:52:00,
2013-03-02 12:00:00,19.0,12.0,-100.00,ENE,67,7.0,-999.0,74,-99.99,,,-99.99,335.239990,,2013-03-02 17:00:00,
2013-03-02 12:42:00,19.0,12.0,-100.00,ENE,67,7.0,-999.0,74,-99.99,,,-99.99,335.239990,,2013-03-02 17:42:00,
2013-03-02 12:52:00,19.0,12.0,-100.00,ENE,67,7.0,-999.0,74,-99.99,,,-99.99,335.239990,,2013-03-02 17:52:00,
2013-03-02 13:00:00,22.0,13.0,-100.00,ENE,67,6.0,-999.0,67,-99.99,,,-99.99,526.640015,,2013-03-02 18:00:00,
2013-03-02 13:32:00,22.0,13.0,-100.00,ENE,67,6.0,-999.0,67,-99.99,,,-99.99,526.640015,,2013-03-02 18:32:00,
2013-03-02 13:42:00,22.0,13.0,-100.00,ENE,67,6.0,-999.0,67,-99.99,,,-99.99,526.640015,,2013-03-02 18:42:00,
2013-03-02 13:52:00,22.0,13.0,-100.00,ENE,67,6.0,-999.0,67,-99.99,,,-99.99,526.640015,,2013-03-02 18:52:00,
2013-03-02 14:00:00,25.0,14.0,-100.00,ESE,112,3.0,-999.0,64,-99.99,,,-99.99,526.640015,,2013-03-02 19:00:00,
2013-03-02 14:43:00,25.0,14.0,-100.00,ESE,112,3.0,-999.0,64,-99.99,,,-99.99,526.640015,,2013-03-02 19:43:00,
2013-03-02 14:52:00,25.0,14.0,-100.00,ESE,112,3.0,-999.0,64,-99.99,,,-99.99,526.640015,,2013-03-02 19:52:00,
2013-03-02 15:00:00,27.0,15.0,-100.00,South,180,4.0,-999.0,61,-99.99,,,-99.99,524.320007,,2013-03-02 20:00:00,
2013-03-02 15:42:00,27.0,15.0,-100.00,South,180,4.0,-999.0,61,-99.99,,,-99.99,524.320007,,2013-03-02 20:42:00,
2013-03-02 15:53:00,27.0,15.0,-100.00,South,180,4.0,-999.0,61,-99.99,,,-99.99,524.320007,,2013-03-02 20:53:00,
2013-03-02 16:00:00,27.0,15.0,-100.00,South,180,6.0,-999.0,59,-99.99,,,-99.99,464.000000,,2013-03-02 21:00:00,
2013-03-02 16:42:00,27.0,15.0,-100.00,South,180,6.0,-999.0,59,-99.99,,,-99.99,464.000000,,2013-03-02 21:42:00,
2013-03-02 16:52:00,27.0,15.0,-100.00,South,180,6.0,-999.0,59,-99.99,,,-99.99,464.000000,,2013-03-02 21:52:00,
2013-03-02 17:00:00,25.0,15.0,-100.00,SE,135,5.0,-999.0,63,-99.99,,,-99.99,194.880005,,2013-03-02 22:00:00,
2013-03-02 17:42:00,25.0,15.0,-100.00,SE,135,5.0,-999.0,63,-99.99,,,-99.99,194.880005,,2013-03-02 22:42:00,
2013-03-02 17:52:00,25.0,15.0,-100.00,SE,135,5.0,-999.0,63,-99.99,,,-99.99,194.880005,,2013-03-02 22:52:00,
2013-03-02 18:00:00,24.0,15.0,-100.00,SSE,157,5.0,-999.0,67,-99.99,,,-99.99,89.320000,,2013-03-02 23:00:00,
2013-03-02 18:42:00,24.0,15.0,-100.00,SSE,157,5.0,-999.0,67,-99.99,,,-99.99,89.320000,,2013-03-02 23:42:00,
2013-03-02 18:52:00,24.0,15.0,-100.00,SSE,157,5.0,-999.0,67,-99.99,,,-99.99,89.320000,,2013-03-02 23:52:00,
2013-03-02 19:00:00,23.0,15.0,-100.00,SSW,202,5.0,-999.0,72,-99.99,,,-99.99,8.120000,,2013-03-03 00:00:00,
2013-03-02 19:42:00,23.0,15.0,-100.00,SSW,202,5.0,-999.0,72,-99.99,,,-99.99,8.120000,,2013-03-03 00:42:00,
2013-03-02 19:52:00,23.0,15.0,-100.00,SSW,202,5.0,-999.0,72,-99.99,,,-99.99,8.120000,,2013-03-03 00:52:00,
2013-03-02 20:00:00,20.0,14.0,-100.00,SE,135,6.0,-999.0,77,-99.99,,,-99.99,0.000000,,2013-03-03 01:00:00,
2013-03-02 20:42:00,20.0,14.0,-100.00,SE,135,6.0,-999.0,77,-99.99,,,-99.99,0.000000,,2013-03-03 01:42:00,
2013-03-02 20:52:00,20.0,14.0,-100.00,SE,135,6.0,-999.0,77,-99.99,,,-99.99,0.000000,,2013-03-03 01:52:00,
2013-03-02 21:00:00,20.0,14.0,-100.00,SE,135,5.0,-999.0,76,-99.99,,,-99.99,0.000000,,2013-03-03 02:00:00,
2013-03-02 21:42:00,20.0,14.0,-100.00,SE,135,5.0,-999.0,76,-99.99,,,-99.99,0.000000,,2013-03-03 02:42:00,
2013-03-02 21:52:00,20.0,14.0,-100.00,SE,135,5.0,-999.0,76,-99.99,,,-99.99,0.000000,,2013-03-03 02:52:00,
2013-03-02 22:00:00,20.0,13.0,-100.00,SE,135,5.0,-999.0,75,-99.99,,,-99.99,0.000000,,2013-03-03 03:00:00,
2013-03-02 22:42:00,20.0,13.0,-100.00,SE,135,5.0,-999.0,75,-99.99,,,-99.99,0.000000,,2013-03-03 03:42:00,
2013-03-02 22:52:00,20.0,13.0,-100.00,SE,135,5.0,-999.0,75,-99.99,,,-99.99,0.000000,,2013-03-03 03:52:00,
2013-03-02 23:00:00,19.0,12.0,-100.00,SSE,157,2.0,-999.0,74,-99.99,,,-99.99,0.000000,,2013-03-03 04:00:00,
2013-03-02 23:42:00,19.0,12.0,-100.00,SSE,157,2.0,-999.0,74,-99.99,,,-99.99,0.000000,,2013-03-03 04:42:00,
2013-03-02 23:52:00,19.0,12.0,-100.00,SSE,157,2.0,-999.0,74,-99.99,,,-99.99,0.000000,,2013-03-03 04:52:00,